createdAt,value
2022-08-23T00:01:57.298Z,18.19
2022-08-23T00:04:35.068Z,18.18
2022-08-23T00:07:02.516Z,18.04
2022-08-23T00:09:29.351Z,18.12
2022-08-23T00:12:12.064Z,18.11
2022-08-23T00:14:41.866Z,18.12
2022-08-23T00:17:13.159Z,18.12
2022-08-23T00:19:59.659Z,18.08
2022-08-23T00:22:26.298Z,18.09
2022-08-23T00:24:52.865Z,18.08
2022-08-23T00:27:19.437Z,18.09
2022-08-23T00:29:50.936Z,18.09
2022-08-23T00:32:23.527Z,18.08
2022-08-23T00:34:51.216Z,18.08
2022-08-23T00:37:18.735Z,18.10
2022-08-23T00:39:46.332Z,18.11
2022-08-23T00:42:51.571Z,18.09
2022-08-23T00:45:25.803Z,18.08
2022-08-23T00:47:53.070Z,18.08
2022-08-23T00:50:32.097Z,18.07
2022-08-23T00:53:16.926Z,18.07
2022-08-23T00:55:48.747Z,18.07
2022-08-23T00:58:18.598Z,18.07
2022-08-23T01:00:46.784Z,18.07
2022-08-23T01:03:13.667Z,17.96
2022-08-23T01:05:49.308Z,18.05
2022-08-23T01:08:16.320Z,18.05
2022-08-23T01:10:49.872Z,18.05
2022-08-23T01:13:39.656Z,18.05
2022-08-23T01:16:16.875Z,18.04
2022-08-23T01:18:44.163Z,18.03
2022-08-23T01:21:24.164Z,18.00
2022-08-23T01:23:55.832Z,18.00
2022-08-23T01:26:24.678Z,18.01
2022-08-23T01:28:52.837Z,18.00
2022-08-23T01:31:20.808Z,17.89
2022-08-23T01:33:56.849Z,17.93
2022-08-23T01:36:23.514Z,17.91
2022-08-23T01:38:52.111Z,17.87
2022-08-23T01:41:18.885Z,17.81
2022-08-23T01:43:45.497Z,17.76
2022-08-23T01:46:22.494Z,17.71
2022-08-23T01:48:50.772Z,17.68
2022-08-23T01:51:18.469Z,17.55
2022-08-23T01:53:46.189Z,17.61
2022-08-23T01:56:15.908Z,17.61
2022-08-23T01:58:42.546Z,17.59
2022-08-23T02:01:10.583Z,17.48
2022-08-23T02:03:37.272Z,17.55
2022-08-23T02:06:04.879Z,17.56
2022-08-23T02:08:32.198Z,17.52
2022-08-23T02:11:07.126Z,17.51
2022-08-23T02:13:33.663Z,17.48
2022-08-23T02:16:00.481Z,17.47
2022-08-23T02:18:27.111Z,17.45
2022-08-23T02:20:53.770Z,17.44
2022-08-23T02:23:21.491Z,17.39
2022-08-23T02:25:48.887Z,17.36
2022-08-23T02:28:15.974Z,17.35
2022-08-23T02:30:44.959Z,17.30
2022-08-23T02:33:12.142Z,17.25
2022-08-23T02:35:39.696Z,17.21
2022-08-23T02:38:08.831Z,17.14
2022-08-23T02:40:36.408Z,17.09
2022-08-23T02:43:04.788Z,17.04
2022-08-23T02:45:32.061Z,17.01
2022-08-23T02:47:59.515Z,16.96
2022-08-23T02:50:34.185Z,16.92
2022-08-23T02:53:00.948Z,16.90
2022-08-23T02:55:28.496Z,16.86
2022-08-23T02:57:55.567Z,16.82
2022-08-23T03:00:23.140Z,16.80
2022-08-23T03:02:50.231Z,16.78
2022-08-23T03:05:17.871Z,16.76
2022-08-23T03:07:45.223Z,16.74
2022-08-23T03:10:13.193Z,16.72
2022-08-23T03:12:46.162Z,16.68
2022-08-23T03:15:13.399Z,16.66
2022-08-23T03:17:39.985Z,16.63
2022-08-23T03:20:09.878Z,16.60
2022-08-23T03:22:36.621Z,16.56
2022-08-23T03:25:05.255Z,16.53
2022-08-23T03:27:44.731Z,16.48
2022-08-23T03:30:19.157Z,16.44
2022-08-23T03:32:51.947Z,16.40
2022-08-23T03:35:18.947Z,16.37
2022-08-23T03:37:45.833Z,16.34
2022-08-23T03:40:13.944Z,16.31
2022-08-23T03:42:40.655Z,16.26
2022-08-23T03:45:07.801Z,16.25
2022-08-23T03:47:34.511Z,16.21
2022-08-23T03:50:01.113Z,16.18
2022-08-23T03:52:27.806Z,16.15
2022-08-23T03:54:54.526Z,16.11
2022-08-23T03:57:21.187Z,16.08
2022-08-23T03:59:47.958Z,16.05
2022-08-23T04:02:15.288Z,15.99
2022-08-23T04:04:42.434Z,15.96
2022-08-23T04:07:41.588Z,15.91
2022-08-23T04:10:09.734Z,15.87
2022-08-23T04:12:39.400Z,15.83
2022-08-23T04:15:12.296Z,15.81
2022-08-23T04:17:40.618Z,15.77
2022-08-23T04:20:07.779Z,15.75
2022-08-23T04:22:40.022Z,15.73
2022-08-23T04:25:09.989Z,15.71
2022-08-23T04:27:54.805Z,15.70
2022-08-23T04:30:22.055Z,15.69
2022-08-23T04:32:51.202Z,15.67
2022-08-23T04:35:17.905Z,15.67
2022-08-23T04:37:44.627Z,15.65
2022-08-23T04:40:12.328Z,15.66
2022-08-23T04:42:42.138Z,15.65
2022-08-23T04:45:09.210Z,15.65
2022-08-23T04:47:38.403Z,15.64
2022-08-23T04:50:07.630Z,15.64
2022-08-23T04:52:35.463Z,15.65
2022-08-23T04:55:02.089Z,15.66
2022-08-23T04:57:48.868Z,15.66
2022-08-23T05:00:22.136Z,15.69
2022-08-23T05:02:56.204Z,15.71
2022-08-23T05:05:23.826Z,15.74
2022-08-23T05:07:50.446Z,15.77
2022-08-23T05:10:17.268Z,15.78
2022-08-23T05:12:48.052Z,15.82
2022-08-23T05:15:16.429Z,15.84
2022-08-23T05:17:46.653Z,15.89
2022-08-23T05:20:13.317Z,15.92
2022-08-23T05:22:42.226Z,15.87
2022-08-23T05:25:31.284Z,16.01
2022-08-23T05:27:58.160Z,16.07
2022-08-23T05:30:24.848Z,16.12
2022-08-23T05:32:51.503Z,16.16
2022-08-23T05:35:18.879Z,16.23
2022-08-23T05:37:46.347Z,16.29
2022-08-23T05:40:13.015Z,16.37
2022-08-23T05:42:53.903Z,16.44
2022-08-23T05:45:21.753Z,16.51
2022-08-23T05:47:49.784Z,16.59
2022-08-23T05:50:25.638Z,16.66
2022-08-23T05:52:52.185Z,16.73
2022-08-23T05:55:19.743Z,16.80
2022-08-23T05:57:48.769Z,16.87
2022-08-23T06:00:17.886Z,16.94
2022-08-23T06:02:48.316Z,17.01
2022-08-23T06:05:17.310Z,17.08
2022-08-23T06:07:45.167Z,17.15
2022-08-23T06:10:16.302Z,17.22
2022-08-23T06:12:48.537Z,17.29
2022-08-23T06:15:15.321Z,17.38
2022-08-23T06:17:42.360Z,17.43
2022-08-23T06:20:10.045Z,17.50
2022-08-23T06:22:51.615Z,17.58
2022-08-23T06:25:18.156Z,17.66
2022-08-23T06:27:55.405Z,17.72
2022-08-23T06:30:23.042Z,17.79
2022-08-23T06:32:55.832Z,17.86
2022-08-23T06:35:38.957Z,17.95
2022-08-23T06:38:09.779Z,18.03
2022-08-23T06:41:10.107Z,18.12
2022-08-23T06:43:58.840Z,18.21
2022-08-23T06:46:44.086Z,18.31
2022-08-23T06:49:11.537Z,18.38
2022-08-23T06:51:41.529Z,18.45
2022-08-23T06:54:17.813Z,18.53
2022-08-23T06:57:01.976Z,18.62
2022-08-23T06:59:31.503Z,18.70
2022-08-23T07:02:03.688Z,18.77
2022-08-23T07:04:48.799Z,18.84
2022-08-23T07:07:39.557Z,18.92
2022-08-23T07:10:12.188Z,19.01
2022-08-23T07:12:40.719Z,19.08
2022-08-23T07:15:08.272Z,19.15
2022-08-23T07:17:34.872Z,19.23
2022-08-23T07:20:01.672Z,19.33
2022-08-23T07:22:28.490Z,19.41
2022-08-23T07:24:55.317Z,19.48
2022-08-23T07:27:23.192Z,19.55
2022-08-23T07:29:59.974Z,19.64
2022-08-23T07:32:26.964Z,19.73
2022-08-23T07:34:56.167Z,19.81
2022-08-23T07:37:23.518Z,19.88
2022-08-23T07:39:50.887Z,19.98
2022-08-23T07:42:24.245Z,20.06
2022-08-23T07:44:54.216Z,20.15
2022-08-23T07:47:22.870Z,20.21
2022-08-23T07:49:49.538Z,20.28
2022-08-23T07:52:16.179Z,20.38
2022-08-23T07:54:48.617Z,20.46
2022-08-23T07:57:30.995Z,20.55
2022-08-23T08:00:30.301Z,20.62
2022-08-23T08:03:15.310Z,20.63
2022-08-23T08:06:07.272Z,20.67
2022-08-23T08:08:33.955Z,20.73
2022-08-23T08:11:00.839Z,20.77
2022-08-23T08:13:27.505Z,20.86
2022-08-23T08:15:54.458Z,20.90
2022-08-23T08:18:24.497Z,20.96
2022-08-23T08:21:14.567Z,21.01
2022-08-23T08:24:17.568Z,21.09
2022-08-23T08:26:48.524Z,21.17
2022-08-23T08:29:16.117Z,21.27
2022-08-23T08:31:45.442Z,21.34
2022-08-23T08:34:13.034Z,21.40
2022-08-23T08:36:43.963Z,21.44
2022-08-23T08:39:20.213Z,21.51
2022-08-23T08:42:04.751Z,21.56
2022-08-23T08:44:47.249Z,21.63
2022-08-23T08:47:39.775Z,21.69
2022-08-23T08:50:39.922Z,21.76
2022-08-23T08:53:15.200Z,21.92
2022-08-23T08:56:32.683Z,21.97
2022-08-23T08:59:19.848Z,22.03
2022-08-23T09:01:47.124Z,22.09
2022-08-23T09:04:19.792Z,22.17
2022-08-23T09:06:58.978Z,22.23
2022-08-23T09:09:44.500Z,22.28
2022-08-23T09:13:09.959Z,22.36
2022-08-23T09:15:40.745Z,22.46
2022-08-23T09:18:13.697Z,22.50
2022-08-23T09:20:42.145Z,22.55
2022-08-23T09:23:20.371Z,22.57
2022-08-23T09:25:55.819Z,22.61
2022-08-23T09:28:34.201Z,22.67
2022-08-23T09:31:01.145Z,22.70
2022-08-23T09:33:40.325Z,22.75
2022-08-23T09:36:22.827Z,22.81
2022-08-23T09:38:56.155Z,22.89
2022-08-23T09:41:28.055Z,22.96
2022-08-23T09:43:57.503Z,23.05
2022-08-23T09:46:30.237Z,23.11
2022-08-23T09:48:58.480Z,23.20
2022-08-23T09:51:35.092Z,23.27
2022-08-23T09:54:05.575Z,23.34
2022-08-23T09:56:40.469Z,23.39
2022-08-23T09:59:28.133Z,23.43
2022-08-23T10:02:04.224Z,23.50
2022-08-23T10:04:44.270Z,23.54
2022-08-23T10:07:34.116Z,23.59
2022-08-23T10:10:24.770Z,23.64
2022-08-23T10:12:56.005Z,23.70
2022-08-23T10:15:46.868Z,23.75
2022-08-23T10:18:16.682Z,23.83
2022-08-23T10:21:03.002Z,23.88
2022-08-23T10:24:13.108Z,23.92
2022-08-23T10:26:46.533Z,23.97
2022-08-23T10:29:36.912Z,23.99
2022-08-23T10:32:22.654Z,24.07
2022-08-23T10:35:04.908Z,24.16
2022-08-23T10:37:46.456Z,24.20
2022-08-23T10:40:20.336Z,24.29
2022-08-23T10:43:06.635Z,24.30
2022-08-23T10:45:37.120Z,24.36
2022-08-23T10:48:24.479Z,24.42
2022-08-23T10:51:07.983Z,24.43
2022-08-23T10:53:45.886Z,24.46
2022-08-23T10:56:14.953Z,24.50
2022-08-23T10:58:52.628Z,24.55
2022-08-23T11:01:45.867Z,24.58
2022-08-23T11:04:24.623Z,24.65
2022-08-23T11:07:21.735Z,24.72
2022-08-23T11:10:07.278Z,24.75
2022-08-23T11:12:54.412Z,24.86
2022-08-23T11:15:38.014Z,24.93
2022-08-23T11:18:41.378Z,24.95
2022-08-23T11:21:37.180Z,25.02
2022-08-23T11:24:05.869Z,25.09
2022-08-23T11:26:36.665Z,25.09
2022-08-23T11:29:06.080Z,25.11
2022-08-23T11:31:48.931Z,25.14
2022-08-23T11:34:43.256Z,25.19
2022-08-23T11:37:19.232Z,25.23
2022-08-23T11:39:58.328Z,25.30
2022-08-23T11:42:39.900Z,25.40
2022-08-23T11:45:26.998Z,25.47
2022-08-23T11:48:12.400Z,25.54
2022-08-23T11:50:57.405Z,25.58
2022-08-23T11:53:54.835Z,25.64
2022-08-23T11:56:33.108Z,25.73
2022-08-23T11:59:21.220Z,25.78
2022-08-23T12:01:50.764Z,25.85
2022-08-23T12:04:41.935Z,25.95
2022-08-23T12:07:12.568Z,25.97
2022-08-23T12:09:43.305Z,25.99
2022-08-23T12:12:25.363Z,26.02
2022-08-23T12:14:58.139Z,26.11
2022-08-23T12:17:24.869Z,26.17
2022-08-23T12:19:58.011Z,26.18
2022-08-23T12:22:30.635Z,26.23
2022-08-23T12:25:04.271Z,26.32
2022-08-23T12:27:41.295Z,26.31
2022-08-23T12:30:17.741Z,26.40
2022-08-23T12:32:54.987Z,26.46
2022-08-23T12:35:33.794Z,26.50
2022-08-23T12:38:07.797Z,26.53
2022-08-23T12:40:45.643Z,26.52
2022-08-23T12:43:23.743Z,26.48
2022-08-23T12:46:01.914Z,26.47
2022-08-23T12:48:31.809Z,26.52
2022-08-23T12:51:10.627Z,26.55
2022-08-23T12:53:44.485Z,26.59
2022-08-23T12:56:19.118Z,26.66
2022-08-23T12:58:51.209Z,26.73
2022-08-23T13:01:23.765Z,26.74
2022-08-23T13:04:14.197Z,26.75
2022-08-23T13:06:46.739Z,26.75
2022-08-23T13:09:25.193Z,26.76
2022-08-23T13:11:52.501Z,26.79
2022-08-23T13:14:30.932Z,26.86
2022-08-23T13:17:32.199Z,26.92
2022-08-23T13:20:21.948Z,26.95
2022-08-23T13:23:07.911Z,27.02
2022-08-23T13:25:38.161Z,27.05
2022-08-23T13:28:26.528Z,27.07
2022-08-23T13:31:06.726Z,27.07
2022-08-23T13:33:33.861Z,27.12
2022-08-23T13:36:21.360Z,27.07
2022-08-23T13:38:48.800Z,27.10
2022-08-23T13:41:39.071Z,27.08
2022-08-23T13:44:09.389Z,27.12
2022-08-23T13:46:45.225Z,27.15
2022-08-23T13:49:22.165Z,27.17
2022-08-23T13:52:33.002Z,27.24
2022-08-23T13:54:51.058Z,27.30
2022-08-23T13:57:21.463Z,27.35
2022-08-23T13:59:55.255Z,27.41
2022-08-23T14:02:23.556Z,27.47
2022-08-23T14:04:50.463Z,27.48
2022-08-23T14:07:17.565Z,27.55
2022-08-23T14:09:44.133Z,27.53
2022-08-23T14:12:23.923Z,27.53
2022-08-23T14:14:50.753Z,27.59
2022-08-23T14:17:20.609Z,27.63
2022-08-23T14:20:31.946Z,27.71
2022-08-23T14:22:34.908Z,27.83
2022-08-23T14:25:01.782Z,27.90
2022-08-23T14:27:28.425Z,27.93
2022-08-23T14:29:55.089Z,27.92
2022-08-23T14:32:21.836Z,27.99
2022-08-23T14:34:48.420Z,28.07
2022-08-23T14:38:02.766Z,28.21
2022-08-23T14:40:01.971Z,28.36
2022-08-23T14:42:28.923Z,28.48
2022-08-23T14:44:55.615Z,28.63
2022-08-23T14:47:22.275Z,28.77
2022-08-23T14:49:53.281Z,28.94
2022-08-23T14:52:21.135Z,29.09
2022-08-23T14:54:48.107Z,29.30
2022-08-23T14:57:14.790Z,29.57
2022-08-23T14:59:41.435Z,29.78
2022-08-23T15:02:11.848Z,29.99
2022-08-23T15:04:38.956Z,30.20
2022-08-23T15:07:21.420Z,30.34
2022-08-23T15:09:51.376Z,30.55
2022-08-23T15:15:12.191Z,31.01
2022-08-23T15:17:52.424Z,31.11
2022-08-23T15:20:20.613Z,31.15
2022-08-23T15:22:55.426Z,31.25
2022-08-23T15:25:24.315Z,31.30
2022-08-23T15:27:51.546Z,31.39
2022-08-23T15:30:18.694Z,31.46
2022-08-23T15:32:52.304Z,31.65
2022-08-23T15:35:23.733Z,31.70
2022-08-23T15:37:50.358Z,31.66
2022-08-23T15:40:17.127Z,31.74
2022-08-23T15:42:43.811Z,31.83
2022-08-23T15:45:11.240Z,31.78
2022-08-23T15:47:49.135Z,31.76
2022-08-23T15:50:19.414Z,31.80
2022-08-23T15:52:46.097Z,31.80
2022-08-23T15:55:12.850Z,31.87
2022-08-23T15:57:44.765Z,31.81
2022-08-23T16:00:13.425Z,31.82
2022-08-23T16:03:04.450Z,31.88
2022-08-23T16:05:26.963Z,31.99
2022-08-23T16:07:57.889Z,32.07
2022-08-23T16:10:28.165Z,32.01
2022-08-23T16:12:55.061Z,32.01
2022-08-23T16:15:22.766Z,32.09
2022-08-23T16:17:49.607Z,32.17
2022-08-23T16:20:16.351Z,32.19
2022-08-23T16:22:43.234Z,32.27
2022-08-23T16:25:10.636Z,32.25
2022-08-23T16:27:37.787Z,32.25
2022-08-23T16:30:06.292Z,32.29
2022-08-23T16:32:32.941Z,32.28
2022-08-23T16:34:59.467Z,32.29
2022-08-23T16:37:26.016Z,32.21
2022-08-23T16:39:52.788Z,32.23
2022-08-23T16:42:20.008Z,32.29
2022-08-23T16:44:46.706Z,32.33
2022-08-23T16:47:13.378Z,32.31
2022-08-23T16:49:40.146Z,32.43
2022-08-23T16:52:06.823Z,32.45
2022-08-23T16:54:33.488Z,32.51
2022-08-23T16:57:00.041Z,32.55
2022-08-23T16:59:26.627Z,32.63
2022-08-23T17:01:59.860Z,32.63
2022-08-23T17:04:30.557Z,32.66
2022-08-23T17:06:58.423Z,32.63
2022-08-23T17:09:27.007Z,32.61
2022-08-23T17:11:54.832Z,32.60
2022-08-23T17:14:21.564Z,32.66
2022-08-23T17:16:48.287Z,32.70
2022-08-23T17:19:14.991Z,32.69
2022-08-23T17:21:42.565Z,32.65
2022-08-23T17:24:09.563Z,32.61
2022-08-23T17:26:36.740Z,32.55
2022-08-23T17:29:04.035Z,32.50
2022-08-23T17:31:30.614Z,32.48
2022-08-23T17:33:57.204Z,32.43
2022-08-23T17:36:40.471Z,32.30
2022-08-23T17:39:10.301Z,32.22
2022-08-23T17:41:38.572Z,32.06
2022-08-23T17:44:07.593Z,31.82
2022-08-23T17:46:35.684Z,31.56
2022-08-23T17:49:02.301Z,31.24
2022-08-23T17:51:29.165Z,30.86
2022-08-23T17:53:55.782Z,30.43
2022-08-23T17:56:22.679Z,29.99
2022-08-23T17:58:49.299Z,29.52
2022-08-23T18:01:16.155Z,29.06
2022-08-23T18:03:42.760Z,28.62
2022-08-23T18:06:16.413Z,28.21
2022-08-23T18:08:44.356Z,27.81
2022-08-23T18:11:10.934Z,27.46
2022-08-23T18:13:37.783Z,27.10
2022-08-23T18:16:04.552Z,26.78
2022-08-23T18:18:31.092Z,26.47
2022-08-23T18:20:57.904Z,26.21
2022-08-23T18:23:24.616Z,25.94
2022-08-23T18:25:51.274Z,25.68
2022-08-23T18:28:17.875Z,25.47
2022-08-23T18:30:53.383Z,25.23
2022-08-23T18:33:23.766Z,25.05
2022-08-23T18:35:53.368Z,24.86
2022-08-23T18:38:19.901Z,24.69
2022-08-23T18:40:47.989Z,24.53
2022-08-23T18:43:18.939Z,24.26
2022-08-23T18:45:47.517Z,24.22
2022-08-23T18:48:14.360Z,24.09
2022-08-23T18:50:41.900Z,23.97
2022-08-23T18:53:09.676Z,23.83
2022-08-23T18:55:36.607Z,23.71
2022-08-23T18:58:04.314Z,23.60
2022-08-23T19:00:30.919Z,23.47
2022-08-23T19:02:58.852Z,23.39
2022-08-23T19:05:25.633Z,23.26
2022-08-23T19:07:52.243Z,23.15
2022-08-23T19:10:20.585Z,23.06
2022-08-23T19:12:51.809Z,22.95
2022-08-23T19:15:21.460Z,22.87
2022-08-23T19:17:48.235Z,22.76
2022-08-23T19:20:15.924Z,22.70
2022-08-23T19:22:42.453Z,22.59
2022-08-23T19:25:09.705Z,22.53
2022-08-23T19:27:36.323Z,22.42
2022-08-23T19:30:06.579Z,22.34
2022-08-23T19:32:33.274Z,22.25
2022-08-23T19:35:00.025Z,22.18
2022-08-23T19:37:27.361Z,22.09
2022-08-23T19:39:55.762Z,22.02
2022-08-23T19:42:22.895Z,21.96
2022-08-23T19:44:49.950Z,21.86
2022-08-23T19:47:19.744Z,21.80
2022-08-23T19:49:47.525Z,21.72
2022-08-23T19:52:14.773Z,21.67
2022-08-23T19:54:41.400Z,21.59
2022-08-23T19:57:08.066Z,21.52
2022-08-23T19:59:37.582Z,21.45
2022-08-23T20:02:05.053Z,21.40
2022-08-23T20:04:33.185Z,21.33
2022-08-23T20:07:01.510Z,21.29
2022-08-23T20:09:29.642Z,21.23
2022-08-23T20:11:56.666Z,21.18
2022-08-23T20:14:26.307Z,21.11
2022-08-23T20:16:54.917Z,21.07
2022-08-23T20:19:21.774Z,21.01
2022-08-23T20:21:48.440Z,20.95
2022-08-23T20:24:16.430Z,20.90
2022-08-23T20:26:44.005Z,20.73
2022-08-23T20:29:21.663Z,20.76
2022-08-23T20:31:57.622Z,20.72
2022-08-23T20:34:27.116Z,20.68
2022-08-23T20:36:55.252Z,20.62
2022-08-23T20:39:24.182Z,20.59
2022-08-23T20:41:52.399Z,20.54
2022-08-23T20:44:22.885Z,20.50
2022-08-23T20:46:53.913Z,20.43
2022-08-23T20:49:23.245Z,20.40
2022-08-23T20:51:50.023Z,20.35
2022-08-23T20:54:17.438Z,20.30
2022-08-23T20:56:43.971Z,20.24
2022-08-23T20:59:10.722Z,20.22
2022-08-23T21:01:37.453Z,20.17
2022-08-23T21:04:04.918Z,20.13
2022-08-23T21:06:38.705Z,20.05
2022-08-23T21:09:05.262Z,20.03
2022-08-23T21:11:31.824Z,19.98
2022-08-23T21:13:58.667Z,19.93
2022-08-23T21:16:25.967Z,19.88
2022-08-23T21:18:54.386Z,19.83
2022-08-23T21:21:26.006Z,19.79
2022-08-23T21:23:53.753Z,19.76
2022-08-23T21:26:20.873Z,19.70
2022-08-23T21:28:47.660Z,19.67
2022-08-23T21:31:17.860Z,19.63
2022-08-23T21:33:44.724Z,19.60
2022-08-23T21:36:16.904Z,19.57
2022-08-23T21:38:43.776Z,19.53
2022-08-23T21:41:32.208Z,19.47
2022-08-23T21:43:59.729Z,19.44
2022-08-23T21:46:26.584Z,19.40
2022-08-23T21:48:53.325Z,19.36
2022-08-23T21:51:20.206Z,19.32
2022-08-23T21:53:46.794Z,19.28
2022-08-23T21:56:13.922Z,19.23
2022-08-23T21:58:40.592Z,19.19
2022-08-23T22:01:07.160Z,19.15
2022-08-23T22:03:35.740Z,19.10
2022-08-23T22:06:03.575Z,19.07
2022-08-23T22:08:30.523Z,19.03
2022-08-23T22:10:58.149Z,18.98
2022-08-23T22:13:28.085Z,18.92
2022-08-23T22:15:54.719Z,18.88
2022-08-23T22:18:21.421Z,18.83
2022-08-23T22:20:47.978Z,18.77
2022-08-23T22:23:14.559Z,18.74
2022-08-23T22:25:41.295Z,18.68
2022-08-23T22:28:07.996Z,18.66
2022-08-23T22:30:34.731Z,18.62
2022-08-23T22:33:01.430Z,18.58
2022-08-23T22:35:28.072Z,18.54
2022-08-23T22:38:12.853Z,18.49
2022-08-23T22:40:40.588Z,18.44
2022-08-23T22:43:07.175Z,18.41
2022-08-23T22:45:33.782Z,18.36
2022-08-23T22:48:00.780Z,18.33
2022-08-23T22:50:27.392Z,18.29
2022-08-23T22:52:54.017Z,18.27
2022-08-23T22:55:20.607Z,18.24
2022-08-23T22:57:47.161Z,18.21
2022-08-23T23:00:13.948Z,18.18
2022-08-23T23:02:40.758Z,18.15
2022-08-23T23:05:07.869Z,18.13
2022-08-23T23:07:34.372Z,18.11
2022-08-23T23:10:00.997Z,18.07
2022-08-23T23:12:27.546Z,18.06
2022-08-23T23:14:54.091Z,18.04
2022-08-23T23:17:20.612Z,18.01
2022-08-23T23:19:47.235Z,17.98
2022-08-23T23:22:13.823Z,17.93
2022-08-23T23:24:41.053Z,17.92
2022-08-23T23:27:08.168Z,17.89
2022-08-23T23:29:35.018Z,17.86
2022-08-23T23:32:01.665Z,17.83
2022-08-23T23:34:28.398Z,17.81
2022-08-23T23:36:58.598Z,17.77
2022-08-23T23:39:26.916Z,17.74
2022-08-23T23:41:54.314Z,17.70
2022-08-23T23:44:31.128Z,17.68
2022-08-23T23:46:59.490Z,17.64
2022-08-23T23:49:32.406Z,17.61
2022-08-23T23:52:00.831Z,17.58
2022-08-23T23:54:27.497Z,17.54
2022-08-23T23:56:54.139Z,17.52
2022-08-23T23:59:20.765Z,17.47
